sensor_id;sensor_type;location;lat;lon;timestamp;P1;durP1;ratioP1;P2;durP2;ratioP2
3052;SDS011;1536;51.098;6.414;2022-11-20T00:00:15;17.48;;;14.48;;
3052;SDS011;1536;51.098;6.414;2022-11-20T00:02:42;16.13;;;14.02;;
3052;SDS011;1536;51.098;6.414;2022-11-20T00:05:09;20.45;;;13.88;;
3052;SDS011;1536;51.098;6.414;2022-11-20T00:07:37;15.00;;;13.02;;
3052;SDS011;1536;51.098;6.414;2022-11-20T00:10:04;19.38;;;14.43;;
3052;SDS011;1536;51.098;6.414;2022-11-20T00:12:31;16.35;;;13.50;;
3052;SDS011;1536;51.098;6.414;2022-11-20T00:14:58;16.67;;;13.73;;
3052;SDS011;1536;51.098;6.414;2022-11-20T00:17:24;16.50;;;13.00;;
3052;SDS011;1536;51.098;6.414;2022-11-20T00:19:51;16.20;;;13.48;;
3052;SDS011;1536;51.098;6.414;2022-11-20T00:22:18;20.35;;;15.85;;
3052;SDS011;1536;51.098;6.414;2022-11-20T00:24:46;18.73;;;14.18;;
3052;SDS011;1536;51.098;6.414;2022-11-20T00:27:13;17.27;;;14.70;;
3052;SDS011;1536;51.098;6.414;2022-11-20T00:29:40;14.85;;;13.25;;
3052;SDS011;1536;51.098;6.414;2022-11-20T00:32:06;20.05;;;15.18;;
3052;SDS011;1536;51.098;6.414;2022-11-20T00:34:33;18.60;;;14.30;;
3052;SDS011;1536;51.098;6.414;2022-11-20T00:37:00;20.85;;;15.52;;
3052;SDS011;1536;51.098;6.414;2022-11-20T00:39:26;17.80;;;14.05;;
3052;SDS011;1536;51.098;6.414;2022-11-20T00:41:54;19.35;;;14.55;;
3052;SDS011;1536;51.098;6.414;2022-11-20T00:44:21;17.08;;;14.35;;
3052;SDS011;1536;51.098;6.414;2022-11-20T00:46:48;17.15;;;13.57;;
3052;SDS011;1536;51.098;6.414;2022-11-20T00:49:14;17.77;;;15.20;;
3052;SDS011;1536;51.098;6.414;2022-11-20T00:51:41;17.23;;;13.60;;
3052;SDS011;1536;51.098;6.414;2022-11-20T00:54:08;20.02;;;15.45;;
3052;SDS011;1536;51.098;6.414;2022-11-20T00:56:35;17.80;;;14.45;;
3052;SDS011;1536;51.098;6.414;2022-11-20T00:59:03;16.88;;;14.63;;
3052;SDS011;1536;51.098;6.414;2022-11-20T01:01:30;17.17;;;13.90;;
3052;SDS011;1536;51.098;6.414;2022-11-20T01:03:57;18.92;;;15.40;;
3052;SDS011;1536;51.098;6.414;2022-11-20T01:06:26;18.30;;;14.23;;
3052;SDS011;1536;51.098;6.414;2022-11-20T01:08:54;19.98;;;16.02;;
3052;SDS011;1536;51.098;6.414;2022-11-20T01:11:23;17.90;;;14.85;;
3052;SDS011;1536;51.098;6.414;2022-11-20T01:13:52;16.58;;;14.20;;
3052;SDS011;1536;51.098;6.414;2022-11-20T01:16:21;15.27;;;13.10;;
3052;SDS011;1536;51.098;6.414;2022-11-20T01:18:50;20.10;;;15.50;;
3052;SDS011;1536;51.098;6.414;2022-11-20T01:21:19;16.08;;;14.23;;
3052;SDS011;1536;51.098;6.414;2022-11-20T01:23:47;19.23;;;13.95;;
3052;SDS011;1536;51.098;6.414;2022-11-20T01:26:16;17.33;;;14.60;;
3052;SDS011;1536;51.098;6.414;2022-11-20T01:28:45;19.02;;;13.10;;
3052;SDS011;1536;51.098;6.414;2022-11-20T01:31:13;15.80;;;13.23;;
3052;SDS011;1536;51.098;6.414;2022-11-20T01:33:43;16.65;;;14.45;;
3052;SDS011;1536;51.098;6.414;2022-11-20T01:36:10;14.48;;;12.98;;
3052;SDS011;1536;51.098;6.414;2022-11-20T01:38:38;18.45;;;14.65;;
3052;SDS011;1536;51.098;6.414;2022-11-20T01:41:05;19.23;;;14.52;;
3052;SDS011;1536;51.098;6.414;2022-11-20T01:43:33;16.33;;;13.63;;
3052;SDS011;1536;51.098;6.414;2022-11-20T01:46:00;17.17;;;13.77;;
3052;SDS011;1536;51.098;6.414;2022-11-20T01:48:44;18.02;;;13.40;;
3052;SDS011;1536;51.098;6.414;2022-11-20T01:51:18;17.17;;;15.02;;
3052;SDS011;1536;51.098;6.414;2022-11-20T01:53:48;17.17;;;13.55;;
3052;SDS011;1536;51.098;6.414;2022-11-20T01:56:17;17.15;;;14.75;;
3052;SDS011;1536;51.098;6.414;2022-11-20T01:58:45;17.88;;;14.93;;
3052;SDS011;1536;51.098;6.414;2022-11-20T02:01:14;19.90;;;15.75;;
3052;SDS011;1536;51.098;6.414;2022-11-20T02:03:41;17.55;;;14.27;;
3052;SDS011;1536;51.098;6.414;2022-11-20T02:06:11;17.20;;;13.93;;
3052;SDS011;1536;51.098;6.414;2022-11-20T02:08:42;19.17;;;15.50;;
3052;SDS011;1536;51.098;6.414;2022-11-20T02:11:09;18.65;;;13.82;;
3052;SDS011;1536;51.098;6.414;2022-11-20T02:13:37;16.42;;;14.18;;
3052;SDS011;1536;51.098;6.414;2022-11-20T02:16:16;21.75;;;15.40;;
3052;SDS011;1536;51.098;6.414;2022-11-20T02:18:48;17.05;;;13.90;;
3052;SDS011;1536;51.098;6.414;2022-11-20T02:21:21;17.80;;;13.88;;
3052;SDS011;1536;51.098;6.414;2022-11-20T02:24:01;19.85;;;14.98;;
3052;SDS011;1536;51.098;6.414;2022-11-20T02:26:34;16.38;;;13.45;;
3052;SDS011;1536;51.098;6.414;2022-11-20T02:29:07;18.30;;;14.25;;
3052;SDS011;1536;51.098;6.414;2022-11-20T02:31:35;17.15;;;14.70;;
3052;SDS011;1536;51.098;6.414;2022-11-20T02:34:03;18.58;;;14.70;;
3052;SDS011;1536;51.098;6.414;2022-11-20T02:36:30;17.15;;;15.10;;
3052;SDS011;1536;51.098;6.414;2022-11-20T02:38:59;19.60;;;14.80;;
3052;SDS011;1536;51.098;6.414;2022-11-20T02:41:31;16.60;;;14.25;;
3052;SDS011;1536;51.098;6.414;2022-11-20T02:43:59;16.25;;;14.55;;
3052;SDS011;1536;51.098;6.414;2022-11-20T02:46:26;18.88;;;14.50;;
3052;SDS011;1536;51.098;6.414;2022-11-20T02:48:53;18.33;;;14.55;;
3052;SDS011;1536;51.098;6.414;2022-11-20T02:51:20;14.98;;;12.88;;
3052;SDS011;1536;51.098;6.414;2022-11-20T02:53:46;24.45;;;14.55;;
3052;SDS011;1536;51.098;6.414;2022-11-20T02:56:13;15.32;;;13.48;;
3052;SDS011;1536;51.098;6.414;2022-11-20T02:58:41;18.10;;;13.65;;
3052;SDS011;1536;51.098;6.414;2022-11-20T03:01:08;15.45;;;13.65;;
3052;SDS011;1536;51.098;6.414;2022-11-20T03:03:35;18.75;;;14.55;;
3052;SDS011;1536;51.098;6.414;2022-11-20T03:06:01;18.75;;;15.15;;
3052;SDS011;1536;51.098;6.414;2022-11-20T03:08:28;18.20;;;14.77;;
3052;SDS011;1536;51.098;6.414;2022-11-20T03:10:55;17.30;;;14.45;;
3052;SDS011;1536;51.098;6.414;2022-11-20T03:13:22;17.20;;;14.00;;
3052;SDS011;1536;51.098;6.414;2022-11-20T03:15:52;18.35;;;14.32;;
3052;SDS011;1536;51.098;6.414;2022-11-20T03:18:18;24.83;;;15.43;;
3052;SDS011;1536;51.098;6.414;2022-11-20T03:20:45;17.27;;;13.93;;
3052;SDS011;1536;51.098;6.414;2022-11-20T03:23:12;16.13;;;13.80;;
3052;SDS011;1536;51.098;6.414;2022-11-20T03:25:38;17.63;;;14.88;;
3052;SDS011;1536;51.098;6.414;2022-11-20T03:28:05;21.38;;;15.13;;
3052;SDS011;1536;51.098;6.414;2022-11-20T03:30:32;18.20;;;14.32;;
3052;SDS011;1536;51.098;6.414;2022-11-20T03:33:00;21.83;;;15.15;;
3052;SDS011;1536;51.098;6.414;2022-11-20T03:35:26;19.13;;;16.08;;
3052;SDS011;1536;51.098;6.414;2022-11-20T03:37:53;17.08;;;13.55;;
3052;SDS011;1536;51.098;6.414;2022-11-20T03:40:20;16.55;;;14.32;;
3052;SDS011;1536;51.098;6.414;2022-11-20T03:42:46;20.05;;;14.50;;
3052;SDS011;1536;51.098;6.414;2022-11-20T03:45:13;19.50;;;15.32;;
3052;SDS011;1536;51.098;6.414;2022-11-20T03:47:41;18.65;;;14.93;;
3052;SDS011;1536;51.098;6.414;2022-11-20T03:50:10;16.05;;;13.57;;
3052;SDS011;1536;51.098;6.414;2022-11-20T03:52:38;19.00;;;14.15;;
3052;SDS011;1536;51.098;6.414;2022-11-20T03:55:05;19.35;;;14.52;;
3052;SDS011;1536;51.098;6.414;2022-11-20T03:57:33;15.30;;;13.40;;
3052;SDS011;1536;51.098;6.414;2022-11-20T04:00:00;17.65;;;14.15;;
3052;SDS011;1536;51.098;6.414;2022-11-20T04:02:26;16.77;;;13.98;;
3052;SDS011;1536;51.098;6.414;2022-11-20T04:04:53;20.58;;;15.38;;
3052;SDS011;1536;51.098;6.414;2022-11-20T04:07:21;19.02;;;14.73;;
3052;SDS011;1536;51.098;6.414;2022-11-20T04:09:48;18.98;;;15.13;;
3052;SDS011;1536;51.098;6.414;2022-11-20T04:12:14;18.98;;;14.10;;
3052;SDS011;1536;51.098;6.414;2022-11-20T04:14:41;20.30;;;14.75;;
3052;SDS011;1536;51.098;6.414;2022-11-20T04:17:08;19.13;;;15.70;;
3052;SDS011;1536;51.098;6.414;2022-11-20T04:19:34;18.10;;;13.52;;
3052;SDS011;1536;51.098;6.414;2022-11-20T04:22:01;19.23;;;14.25;;
3052;SDS011;1536;51.098;6.414;2022-11-20T04:24:29;17.33;;;14.27;;
3052;SDS011;1536;51.098;6.414;2022-11-20T04:26:56;17.58;;;15.30;;
3052;SDS011;1536;51.098;6.414;2022-11-20T04:29:22;17.70;;;15.80;;
3052;SDS011;1536;51.098;6.414;2022-11-20T04:31:49;18.20;;;14.13;;
3052;SDS011;1536;51.098;6.414;2022-11-20T04:34:16;17.52;;;14.25;;
3052;SDS011;1536;51.098;6.414;2022-11-20T04:36:42;19.20;;;15.80;;
3052;SDS011;1536;51.098;6.414;2022-11-20T04:39:13;18.27;;;14.50;;
3052;SDS011;1536;51.098;6.414;2022-11-20T04:41:42;18.25;;;15.10;;
3052;SDS011;1536;51.098;6.414;2022-11-20T04:44:09;17.40;;;13.82;;
3052;SDS011;1536;51.098;6.414;2022-11-20T04:46:37;19.00;;;14.40;;
3052;SDS011;1536;51.098;6.414;2022-11-20T04:49:05;19.27;;;15.25;;
3052;SDS011;1536;51.098;6.414;2022-11-20T04:51:32;19.52;;;16.55;;
3052;SDS011;1536;51.098;6.414;2022-11-20T04:53:59;19.70;;;15.60;;
3052;SDS011;1536;51.098;6.414;2022-11-20T04:56:26;19.92;;;14.95;;
3052;SDS011;1536;51.098;6.414;2022-11-20T04:58:54;21.45;;;16.70;;
3052;SDS011;1536;51.098;6.414;2022-11-20T05:01:22;25.65;;;16.38;;
3052;SDS011;1536;51.098;6.414;2022-11-20T05:03:49;19.75;;;15.50;;
3052;SDS011;1536;51.098;6.414;2022-11-20T05:06:17;21.25;;;15.10;;
3052;SDS011;1536;51.098;6.414;2022-11-20T05:08:44;19.88;;;16.48;;
3052;SDS011;1536;51.098;6.414;2022-11-20T05:11:12;21.83;;;15.50;;
3052;SDS011;1536;51.098;6.414;2022-11-20T05:13:40;23.45;;;16.70;;
3052;SDS011;1536;51.098;6.414;2022-11-20T05:16:09;19.52;;;15.18;;
3052;SDS011;1536;51.098;6.414;2022-11-20T05:18:37;20.70;;;16.30;;
3052;SDS011;1536;51.098;6.414;2022-11-20T05:21:04;19.10;;;14.00;;
3052;SDS011;1536;51.098;6.414;2022-11-20T05:23:32;17.27;;;14.90;;
3052;SDS011;1536;51.098;6.414;2022-11-20T05:25:59;16.95;;;15.15;;
3052;SDS011;1536;51.098;6.414;2022-11-20T05:28:26;19.73;;;14.30;;
3052;SDS011;1536;51.098;6.414;2022-11-20T05:30:54;19.13;;;14.70;;
3052;SDS011;1536;51.098;6.414;2022-11-20T05:33:22;22.48;;;17.23;;
3052;SDS011;1536;51.098;6.414;2022-11-20T05:35:49;18.95;;;15.27;;
3052;SDS011;1536;51.098;6.414;2022-11-20T05:38:15;19.40;;;15.38;;
3052;SDS011;1536;51.098;6.414;2022-11-20T05:40:42;23.85;;;16.42;;
3052;SDS011;1536;51.098;6.414;2022-11-20T05:43:09;20.67;;;15.93;;
3052;SDS011;1536;51.098;6.414;2022-11-20T05:45:35;18.55;;;15.65;;
3052;SDS011;1536;51.098;6.414;2022-11-20T05:48:02;17.23;;;14.32;;
3052;SDS011;1536;51.098;6.414;2022-11-20T05:50:31;19.60;;;15.85;;
3052;SDS011;1536;51.098;6.414;2022-11-20T05:52:57;25.88;;;15.82;;
3052;SDS011;1536;51.098;6.414;2022-11-20T05:55:25;20.60;;;15.07;;
3052;SDS011;1536;51.098;6.414;2022-11-20T05:57:52;19.30;;;15.52;;
3052;SDS011;1536;51.098;6.414;2022-11-20T06:00:19;20.85;;;15.52;;
3052;SDS011;1536;51.098;6.414;2022-11-20T06:02:46;18.95;;;14.73;;
3052;SDS011;1536;51.098;6.414;2022-11-20T06:05:13;17.23;;;14.82;;
3052;SDS011;1536;51.098;6.414;2022-11-20T06:07:41;20.85;;;14.88;;
3052;SDS011;1536;51.098;6.414;2022-11-20T06:10:08;19.75;;;14.40;;
3052;SDS011;1536;51.098;6.414;2022-11-20T06:12:35;19.80;;;15.30;;
3052;SDS011;1536;51.098;6.414;2022-11-20T06:15:02;22.48;;;15.80;;
3052;SDS011;1536;51.098;6.414;2022-11-20T06:17:29;19.90;;;16.48;;
3052;SDS011;1536;51.098;6.414;2022-11-20T06:19:56;20.27;;;17.15;;
3052;SDS011;1536;51.098;6.414;2022-11-20T06:22:22;21.60;;;15.43;;
3052;SDS011;1536;51.098;6.414;2022-11-20T06:24:51;17.55;;;14.95;;
3052;SDS011;1536;51.098;6.414;2022-11-20T06:27:17;23.60;;;16.05;;
3052;SDS011;1536;51.098;6.414;2022-11-20T06:29:44;22.65;;;15.57;;
3052;SDS011;1536;51.098;6.414;2022-11-20T06:32:11;18.75;;;15.43;;
3052;SDS011;1536;51.098;6.414;2022-11-20T06:34:38;23.20;;;15.57;;
3052;SDS011;1536;51.098;6.414;2022-11-20T06:37:04;18.88;;;15.30;;
3052;SDS011;1536;51.098;6.414;2022-11-20T06:39:31;20.25;;;15.13;;
3052;SDS011;1536;51.098;6.414;2022-11-20T06:41:59;18.08;;;15.52;;
3052;SDS011;1536;51.098;6.414;2022-11-20T06:44:26;21.20;;;16.02;;
3052;SDS011;1536;51.098;6.414;2022-11-20T06:46:52;21.35;;;17.15;;
3052;SDS011;1536;51.098;6.414;2022-11-20T06:49:19;19.05;;;15.43;;
3052;SDS011;1536;51.098;6.414;2022-11-20T06:51:46;18.55;;;14.88;;
3052;SDS011;1536;51.098;6.414;2022-11-20T06:54:12;18.35;;;15.13;;
3052;SDS011;1536;51.098;6.414;2022-11-20T06:56:39;20.70;;;15.50;;
3052;SDS011;1536;51.098;6.414;2022-11-20T06:59:07;20.45;;;15.77;;
3052;SDS011;1536;51.098;6.414;2022-11-20T07:01:34;20.02;;;15.38;;
3052;SDS011;1536;51.098;6.414;2022-11-20T07:04:01;19.67;;;15.35;;
3052;SDS011;1536;51.098;6.414;2022-11-20T07:06:28;20.40;;;17.98;;
3052;SDS011;1536;51.098;6.414;2022-11-20T07:08:54;18.83;;;16.23;;
3052;SDS011;1536;51.098;6.414;2022-11-20T07:11:21;20.20;;;15.60;;
3052;SDS011;1536;51.098;6.414;2022-11-20T07:13:48;18.77;;;15.40;;
3052;SDS011;1536;51.098;6.414;2022-11-20T07:16:16;17.80;;;15.68;;
3052;SDS011;1536;51.098;6.414;2022-11-20T07:18:42;21.88;;;16.90;;
3052;SDS011;1536;51.098;6.414;2022-11-20T07:21:10;19.80;;;16.30;;
3052;SDS011;1536;51.098;6.414;2022-11-20T07:23:37;23.08;;;16.15;;
3052;SDS011;1536;51.098;6.414;2022-11-20T07:26:04;19.95;;;16.55;;
3052;SDS011;1536;51.098;6.414;2022-11-20T07:28:31;24.40;;;16.77;;
3052;SDS011;1536;51.098;6.414;2022-11-20T07:30:58;19.45;;;15.95;;
3052;SDS011;1536;51.098;6.414;2022-11-20T07:33:26;21.02;;;15.35;;
3052;SDS011;1536;51.098;6.414;2022-11-20T07:38:35;20.02;;;14.95;;
3052;SDS011;1536;51.098;6.414;2022-11-20T07:41:03;19.98;;;16.42;;
3052;SDS011;1536;51.098;6.414;2022-11-20T07:43:30;17.55;;;14.85;;
3052;SDS011;1536;51.098;6.414;2022-11-20T07:45:57;18.05;;;16.05;;
3052;SDS011;1536;51.098;6.414;2022-11-20T07:48:24;20.17;;;15.77;;
3052;SDS011;1536;51.098;6.414;2022-11-20T07:50:53;18.05;;;15.88;;
3052;SDS011;1536;51.098;6.414;2022-11-20T07:53:20;21.13;;;15.93;;
3052;SDS011;1536;51.098;6.414;2022-11-20T07:55:47;23.10;;;17.88;;
3052;SDS011;1536;51.098;6.414;2022-11-20T07:58:15;19.75;;;15.68;;
3052;SDS011;1536;51.098;6.414;2022-11-20T08:00:41;24.77;;;17.65;;
3052;SDS011;1536;51.098;6.414;2022-11-20T08:03:08;28.08;;;17.70;;
3052;SDS011;1536;51.098;6.414;2022-11-20T08:05:36;21.13;;;17.20;;
3052;SDS011;1536;51.098;6.414;2022-11-20T08:08:03;26.77;;;18.92;;
3052;SDS011;1536;51.098;6.414;2022-11-20T08:10:31;35.70;;;20.52;;
3052;SDS011;1536;51.098;6.414;2022-11-20T08:12:58;34.95;;;20.15;;
3052;SDS011;1536;51.098;6.414;2022-11-20T08:15:47;37.50;;;22.88;;
3052;SDS011;1536;51.098;6.414;2022-11-20T08:18:14;40.80;;;22.73;;
3052;SDS011;1536;51.098;6.414;2022-11-20T08:20:43;39.67;;;20.27;;
3052;SDS011;1536;51.098;6.414;2022-11-20T08:23:10;33.95;;;20.92;;
3052;SDS011;1536;51.098;6.414;2022-11-20T08:25:37;40.38;;;21.98;;
3052;SDS011;1536;51.098;6.414;2022-11-20T08:28:05;43.53;;;22.98;;
3052;SDS011;1536;51.098;6.414;2022-11-20T08:30:33;39.88;;;21.88;;
3052;SDS011;1536;51.098;6.414;2022-11-20T08:33:00;39.13;;;22.13;;
3052;SDS011;1536;51.098;6.414;2022-11-20T08:35:29;42.03;;;23.00;;
3052;SDS011;1536;51.098;6.414;2022-11-20T08:38:00;43.20;;;24.73;;
3052;SDS011;1536;51.098;6.414;2022-11-20T08:40:27;51.20;;;25.33;;
3052;SDS011;1536;51.098;6.414;2022-11-20T08:42:53;39.58;;;25.65;;
3052;SDS011;1536;51.098;6.414;2022-11-20T08:45:20;43.88;;;25.98;;
3052;SDS011;1536;51.098;6.414;2022-11-20T08:47:47;40.20;;;24.23;;
3052;SDS011;1536;51.098;6.414;2022-11-20T08:50:15;44.13;;;24.63;;
3052;SDS011;1536;51.098;6.414;2022-11-20T08:52:42;42.25;;;21.67;;
3052;SDS011;1536;51.098;6.414;2022-11-20T08:55:10;40.00;;;23.42;;
3052;SDS011;1536;51.098;6.414;2022-11-20T08:57:37;43.22;;;23.25;;
3052;SDS011;1536;51.098;6.414;2022-11-20T09:00:05;47.50;;;24.50;;
3052;SDS011;1536;51.098;6.414;2022-11-20T09:02:36;36.28;;;22.02;;
3052;SDS011;1536;51.098;6.414;2022-11-20T09:05:03;39.63;;;23.10;;
3052;SDS011;1536;51.098;6.414;2022-11-20T09:07:30;36.08;;;21.98;;
3052;SDS011;1536;51.098;6.414;2022-11-20T09:09:56;35.72;;;20.83;;
3052;SDS011;1536;51.098;6.414;2022-11-20T09:12:25;35.28;;;21.00;;
3052;SDS011;1536;51.098;6.414;2022-11-20T09:14:51;31.33;;;19.58;;
3052;SDS011;1536;51.098;6.414;2022-11-20T09:17:18;36.88;;;21.70;;
3052;SDS011;1536;51.098;6.414;2022-11-20T09:19:45;36.17;;;21.20;;
3052;SDS011;1536;51.098;6.414;2022-11-20T09:22:12;29.92;;;20.13;;
3052;SDS011;1536;51.098;6.414;2022-11-20T09:24:39;31.33;;;20.00;;
3052;SDS011;1536;51.098;6.414;2022-11-20T09:27:06;30.20;;;17.63;;
3052;SDS011;1536;51.098;6.414;2022-11-20T09:29:34;27.05;;;18.13;;
3052;SDS011;1536;51.098;6.414;2022-11-20T09:32:01;33.15;;;19.42;;
3052;SDS011;1536;51.098;6.414;2022-11-20T09:34:28;35.33;;;19.90;;
3052;SDS011;1536;51.098;6.414;2022-11-20T09:36:55;29.80;;;19.15;;
3052;SDS011;1536;51.098;6.414;2022-11-20T09:39:21;24.95;;;17.90;;
3052;SDS011;1536;51.098;6.414;2022-11-20T09:44:54;28.85;;;18.88;;
3052;SDS011;1536;51.098;6.414;2022-11-20T09:47:45;26.30;;;19.30;;
3052;SDS011;1536;51.098;6.414;2022-11-20T09:50:23;28.92;;;17.95;;
3052;SDS011;1536;51.098;6.414;2022-11-20T09:53:00;26.52;;;17.55;;
3052;SDS011;1536;51.098;6.414;2022-11-20T09:55:34;26.00;;;17.88;;
3052;SDS011;1536;51.098;6.414;2022-11-20T09:58:04;26.45;;;17.45;;
3052;SDS011;1536;51.098;6.414;2022-11-20T10:00:34;28.17;;;17.55;;
3052;SDS011;1536;51.098;6.414;2022-11-20T10:03:03;25.52;;;16.98;;
3052;SDS011;1536;51.098;6.414;2022-11-20T10:05:39;25.42;;;17.40;;
3052;SDS011;1536;51.098;6.414;2022-11-20T10:08:11;24.95;;;16.45;;
3052;SDS011;1536;51.098;6.414;2022-11-20T10:10:43;28.27;;;16.85;;
3052;SDS011;1536;51.098;6.414;2022-11-20T10:13:28;25.30;;;15.65;;
3052;SDS011;1536;51.098;6.414;2022-11-20T10:16:12;26.45;;;16.73;;
3052;SDS011;1536;51.098;6.414;2022-11-20T10:18:50;24.50;;;17.08;;
3052;SDS011;1536;51.098;6.414;2022-11-20T10:21:27;26.00;;;16.88;;
3052;SDS011;1536;51.098;6.414;2022-11-20T10:24:07;24.27;;;14.93;;
3052;SDS011;1536;51.098;6.414;2022-11-20T10:26:52;32.08;;;19.02;;
3052;SDS011;1536;51.098;6.414;2022-11-20T10:29:27;28.23;;;17.35;;
3052;SDS011;1536;51.098;6.414;2022-11-20T10:32:01;24.45;;;17.08;;
3052;SDS011;1536;51.098;6.414;2022-11-20T10:34:31;27.30;;;15.45;;
3052;SDS011;1536;51.098;6.414;2022-11-20T10:37:14;22.95;;;15.85;;
3052;SDS011;1536;51.098;6.414;2022-11-20T10:39:46;23.73;;;16.58;;
3052;SDS011;1536;51.098;6.414;2022-11-20T10:42:20;30.98;;;17.30;;
3052;SDS011;1536;51.098;6.414;2022-11-20T10:44:52;27.75;;;17.60;;
3052;SDS011;1536;51.098;6.414;2022-11-20T10:47:30;32.58;;;21.13;;
3052;SDS011;1536;51.098;6.414;2022-11-20T10:50:03;42.88;;;27.55;;
3052;SDS011;1536;51.098;6.414;2022-11-20T10:52:33;31.25;;;20.02;;
3052;SDS011;1536;51.098;6.414;2022-11-20T10:55:10;32.58;;;21.55;;
3052;SDS011;1536;51.098;6.414;2022-11-20T10:57:51;28.17;;;18.80;;
3052;SDS011;1536;51.098;6.414;2022-11-20T11:00:20;23.52;;;17.00;;
3052;SDS011;1536;51.098;6.414;2022-11-20T11:02:49;27.33;;;19.30;;
3052;SDS011;1536;51.098;6.414;2022-11-20T11:05:27;26.52;;;18.13;;
3052;SDS011;1536;51.098;6.414;2022-11-20T11:08:02;31.17;;;19.48;;
3052;SDS011;1536;51.098;6.414;2022-11-20T11:10:32;29.83;;;18.23;;
3052;SDS011;1536;51.098;6.414;2022-11-20T11:13:06;24.33;;;17.95;;
3052;SDS011;1536;51.098;6.414;2022-11-20T11:15:37;28.27;;;19.58;;
3052;SDS011;1536;51.098;6.414;2022-11-20T11:18:07;26.67;;;19.67;;
3052;SDS011;1536;51.098;6.414;2022-11-20T11:20:35;27.08;;;18.70;;
3052;SDS011;1536;51.098;6.414;2022-11-20T11:23:03;27.70;;;18.35;;
3052;SDS011;1536;51.098;6.414;2022-11-20T11:25:31;29.65;;;19.60;;
3052;SDS011;1536;51.098;6.414;2022-11-20T11:28:00;29.45;;;17.77;;
3052;SDS011;1536;51.098;6.414;2022-11-20T11:30:28;29.85;;;16.52;;
3052;SDS011;1536;51.098;6.414;2022-11-20T11:33:04;27.85;;;16.83;;
3052;SDS011;1536;51.098;6.414;2022-11-20T11:35:38;29.88;;;16.70;;
3052;SDS011;1536;51.098;6.414;2022-11-20T11:38:12;34.35;;;17.92;;
3052;SDS011;1536;51.098;6.414;2022-11-20T11:40:41;26.13;;;18.02;;
3052;SDS011;1536;51.098;6.414;2022-11-20T11:43:16;23.40;;;17.05;;
3052;SDS011;1536;51.098;6.414;2022-11-20T11:46:04;33.15;;;17.95;;
3052;SDS011;1536;51.098;6.414;2022-11-20T11:48:41;26.08;;;18.38;;
3052;SDS011;1536;51.098;6.414;2022-11-20T11:51:08;25.50;;;17.58;;
3052;SDS011;1536;51.098;6.414;2022-11-20T11:53:35;23.42;;;16.52;;
3052;SDS011;1536;51.098;6.414;2022-11-20T11:56:08;27.00;;;17.20;;
3052;SDS011;1536;51.098;6.414;2022-11-20T11:58:40;29.15;;;16.08;;
3052;SDS011;1536;51.098;6.414;2022-11-20T12:01:13;25.88;;;15.98;;
3052;SDS011;1536;51.098;6.414;2022-11-20T12:03:55;25.83;;;18.13;;
3052;SDS011;1536;51.098;6.414;2022-11-20T12:06:27;23.95;;;17.58;;
3052;SDS011;1536;51.098;6.414;2022-11-20T12:08:57;25.02;;;17.20;;
3052;SDS011;1536;51.098;6.414;2022-11-20T12:11:30;28.20;;;18.55;;
3052;SDS011;1536;51.098;6.414;2022-11-20T12:14:02;25.48;;;16.42;;
3052;SDS011;1536;51.098;6.414;2022-11-20T12:16:35;25.55;;;17.48;;
3052;SDS011;1536;51.098;6.414;2022-11-20T12:19:07;21.30;;;15.40;;
3052;SDS011;1536;51.098;6.414;2022-11-20T12:21:38;22.70;;;15.82;;
3052;SDS011;1536;51.098;6.414;2022-11-20T12:24:19;26.33;;;16.58;;
3052;SDS011;1536;51.098;6.414;2022-11-20T12:27:04;25.48;;;16.27;;
3052;SDS011;1536;51.098;6.414;2022-11-20T12:29:47;24.80;;;16.67;;
3052;SDS011;1536;51.098;6.414;2022-11-20T12:32:36;24.75;;;16.80;;
3052;SDS011;1536;51.098;6.414;2022-11-20T12:35:44;22.65;;;15.60;;
3052;SDS011;1536;51.098;6.414;2022-11-20T12:41:36;30.58;;;19.05;;
3052;SDS011;1536;51.098;6.414;2022-11-20T12:44:36;29.67;;;17.85;;
3052;SDS011;1536;51.098;6.414;2022-11-20T12:50:31;24.95;;;17.42;;
3052;SDS011;1536;51.098;6.414;2022-11-20T12:53:06;26.42;;;18.23;;
3052;SDS011;1536;51.098;6.414;2022-11-20T12:55:46;34.55;;;21.65;;
3052;SDS011;1536;51.098;6.414;2022-11-20T12:58:17;28.60;;;18.38;;
3052;SDS011;1536;51.098;6.414;2022-11-20T13:00:55;34.95;;;19.02;;
3052;SDS011;1536;51.098;6.414;2022-11-20T13:06:12;29.45;;;19.85;;
3052;SDS011;1536;51.098;6.414;2022-11-20T13:08:44;30.50;;;19.25;;
3052;SDS011;1536;51.098;6.414;2022-11-20T13:11:17;31.23;;;19.80;;
3052;SDS011;1536;51.098;6.414;2022-11-20T13:13:52;29.17;;;18.85;;
3052;SDS011;1536;51.098;6.414;2022-11-20T13:16:31;29.90;;;19.23;;
3052;SDS011;1536;51.098;6.414;2022-11-20T13:19:04;30.60;;;19.05;;
3052;SDS011;1536;51.098;6.414;2022-11-20T13:21:35;27.02;;;18.73;;
3052;SDS011;1536;51.098;6.414;2022-11-20T13:24:19;27.65;;;19.35;;
3052;SDS011;1536;51.098;6.414;2022-11-20T13:26:58;26.55;;;18.77;;
3052;SDS011;1536;51.098;6.414;2022-11-20T13:29:26;26.88;;;19.38;;
3052;SDS011;1536;51.098;6.414;2022-11-20T13:32:01;28.13;;;18.80;;
3052;SDS011;1536;51.098;6.414;2022-11-20T13:34:29;28.85;;;17.70;;
3052;SDS011;1536;51.098;6.414;2022-11-20T13:36:57;28.10;;;18.77;;
3052;SDS011;1536;51.098;6.414;2022-11-20T13:39:27;28.10;;;18.38;;
3052;SDS011;1536;51.098;6.414;2022-11-20T13:41:55;23.85;;;17.83;;
3052;SDS011;1536;51.098;6.414;2022-11-20T13:44:24;26.92;;;18.58;;
3052;SDS011;1536;51.098;6.414;2022-11-20T13:46:54;25.98;;;17.70;;
3052;SDS011;1536;51.098;6.414;2022-11-20T13:49:23;26.60;;;18.17;;
3052;SDS011;1536;51.098;6.414;2022-11-20T13:51:55;26.02;;;17.02;;
3052;SDS011;1536;51.098;6.414;2022-11-20T13:57:51;26.92;;;17.45;;
3052;SDS011;1536;51.098;6.414;2022-11-20T14:00:30;28.08;;;17.33;;
3052;SDS011;1536;51.098;6.414;2022-11-20T14:03:02;24.77;;;17.10;;
3052;SDS011;1536;51.098;6.414;2022-11-20T14:05:38;26.80;;;17.83;;
3052;SDS011;1536;51.098;6.414;2022-11-20T14:08:16;26.02;;;18.15;;
3052;SDS011;1536;51.098;6.414;2022-11-20T14:11:05;22.75;;;16.77;;
3052;SDS011;1536;51.098;6.414;2022-11-20T14:13:39;29.98;;;17.08;;
3052;SDS011;1536;51.098;6.414;2022-11-20T14:16:19;30.63;;;17.33;;
3052;SDS011;1536;51.098;6.414;2022-11-20T14:18:45;24.52;;;17.02;;
3052;SDS011;1536;51.098;6.414;2022-11-20T14:21:20;25.75;;;16.92;;
3052;SDS011;1536;51.098;6.414;2022-11-20T14:23:48;29.88;;;17.48;;
3052;SDS011;1536;51.098;6.414;2022-11-20T14:26:17;26.88;;;17.25;;
3052;SDS011;1536;51.098;6.414;2022-11-20T14:28:47;21.05;;;16.50;;
3052;SDS011;1536;51.098;6.414;2022-11-20T14:31:17;25.63;;;17.02;;
3052;SDS011;1536;51.098;6.414;2022-11-20T14:33:48;18.33;;;14.00;;
3052;SDS011;1536;51.098;6.414;2022-11-20T14:36:16;20.85;;;15.20;;
3052;SDS011;1536;51.098;6.414;2022-11-20T14:38:44;22.20;;;15.90;;
3052;SDS011;1536;51.098;6.414;2022-11-20T14:41:16;23.52;;;15.80;;
3052;SDS011;1536;51.098;6.414;2022-11-20T14:43:46;22.52;;;15.35;;
3052;SDS011;1536;51.098;6.414;2022-11-20T14:46:16;23.73;;;15.30;;
3052;SDS011;1536;51.098;6.414;2022-11-20T14:48:44;21.30;;;16.23;;
3052;SDS011;1536;51.098;6.414;2022-11-20T14:51:22;21.10;;;14.35;;
3052;SDS011;1536;51.098;6.414;2022-11-20T14:53:53;20.50;;;14.43;;
3052;SDS011;1536;51.098;6.414;2022-11-20T14:56:22;21.83;;;15.15;;
3052;SDS011;1536;51.098;6.414;2022-11-20T14:58:56;23.67;;;14.85;;
3052;SDS011;1536;51.098;6.414;2022-11-20T15:01:26;27.27;;;16.17;;
3052;SDS011;1536;51.098;6.414;2022-11-20T15:03:59;22.58;;;16.10;;
3052;SDS011;1536;51.098;6.414;2022-11-20T15:06:27;21.33;;;14.75;;
3052;SDS011;1536;51.098;6.414;2022-11-20T15:08:54;22.70;;;15.77;;
3052;SDS011;1536;51.098;6.414;2022-11-20T15:11:25;21.90;;;16.02;;
3052;SDS011;1536;51.098;6.414;2022-11-20T15:13:55;23.52;;;15.30;;
3052;SDS011;1536;51.098;6.414;2022-11-20T15:16:23;21.58;;;15.85;;
3052;SDS011;1536;51.098;6.414;2022-11-20T15:18:52;22.73;;;16.25;;
3052;SDS011;1536;51.098;6.414;2022-11-20T15:21:20;23.40;;;16.13;;